createdAt,value
2019-04-28T00:01:57.921Z,12.40
2019-04-28T00:04:26.403Z,12.40
2019-04-28T00:06:54.977Z,12.40
2019-04-28T00:09:23.515Z,12.40
2019-04-28T00:11:51.968Z,12.40
2019-04-28T00:14:21.918Z,12.40
2019-04-28T00:16:51.170Z,12.40
2019-04-28T00:19:21.064Z,12.40
2019-04-28T00:21:51.683Z,12.40
2019-04-28T00:24:38.375Z,12.40
2019-04-28T00:27:06.994Z,12.40
2019-04-28T00:29:40.767Z,12.40
2019-04-28T00:32:06.099Z,12.40
2019-04-28T00:34:34.712Z,12.40
2019-04-28T00:37:04.791Z,12.40
2019-04-28T00:39:33.278Z,12.40
2019-04-28T00:42:03.331Z,12.30
2019-04-28T00:44:32.104Z,12.30
2019-04-28T00:47:01.130Z,12.30
2019-04-28T00:49:31.601Z,12.30
2019-04-28T00:52:00.704Z,12.30
2019-04-28T00:54:31.716Z,12.30
2019-04-28T00:57:01.479Z,12.30
2019-04-28T00:59:31.584Z,12.30
2019-04-28T01:02:01.753Z,12.30
2019-04-28T01:04:31.041Z,12.30
2019-04-28T01:07:01.649Z,12.40
2019-04-28T01:09:31.597Z,12.40
2019-04-28T01:12:01.804Z,12.40
2019-04-28T01:14:31.008Z,12.40
2019-04-28T01:17:09.862Z,12.30
2019-04-28T01:19:52.123Z,12.30
2019-04-28T01:22:20.663Z,12.30
2019-04-28T01:24:49.694Z,12.30
2019-04-28T01:27:31.951Z,12.20
2019-04-28T01:30:07.919Z,12.20
2019-04-28T01:32:36.384Z,12.20
2019-04-28T01:35:05.969Z,12.10
2019-04-28T01:37:34.590Z,12.10
2019-04-28T01:40:04.356Z,12.10
2019-04-28T01:42:32.849Z,12.10
2019-04-28T01:45:01.293Z,12.10
2019-04-28T01:47:30.523Z,12.10
2019-04-28T01:50:00.199Z,12.10
2019-04-28T01:52:30.286Z,12.10
2019-04-28T01:55:00.481Z,12.20
2019-04-28T01:57:29.974Z,12.20
2019-04-28T01:59:59.772Z,12.20
2019-04-28T02:02:30.089Z,12.20
2019-04-28T02:04:59.939Z,12.20
2019-04-28T02:07:32.645Z,12.20
2019-04-28T02:10:00.759Z,12.30
2019-04-28T02:12:30.411Z,12.30
2019-04-28T02:17:30.494Z,12.40
2019-04-28T02:20:00.667Z,12.40
2019-04-28T02:22:31.837Z,12.40
2019-04-28T02:25:00.426Z,12.40
2019-04-28T02:27:30.177Z,12.40
2019-04-28T02:30:00.064Z,12.40
2019-04-28T02:32:30.827Z,12.40
2019-04-28T02:35:01.247Z,12.40
2019-04-28T02:40:02.845Z,12.40
2019-04-28T02:42:30.925Z,12.40
2019-04-28T02:45:00.509Z,12.30
2019-04-28T02:47:33.656Z,12.30
2019-04-28T02:50:04.126Z,12.30
2019-04-28T02:52:51.939Z,12.20
2019-04-28T02:55:21.340Z,12.10
2019-04-28T02:57:51.711Z,12.10
2019-04-28T03:05:21.520Z,11.90
2019-04-28T03:07:51.502Z,11.90
2019-04-28T03:10:21.474Z,11.90
2019-04-28T03:12:51.640Z,11.90
2019-04-28T03:15:20.685Z,11.90
2019-04-28T03:17:52.516Z,11.90
2019-04-28T03:20:21.051Z,11.80
2019-04-28T03:22:51.054Z,11.80
2019-04-28T03:25:40.536Z,11.80
2019-04-28T03:28:15.457Z,11.80
2019-04-28T03:30:45.573Z,11.70
2019-04-28T03:33:18.805Z,11.70
2019-04-28T03:35:46.047Z,11.70
2019-04-28T03:38:14.538Z,11.70
2019-04-28T03:40:43.075Z,11.60
2019-04-28T03:45:43.092Z,11.60
2019-04-28T03:48:11.632Z,11.60
2019-04-28T03:50:41.371Z,11.60
2019-04-28T03:53:11.084Z,11.60
2019-04-28T03:55:41.622Z,11.60
2019-04-28T03:58:10.443Z,11.50
2019-04-28T04:00:40.812Z,11.50
2019-04-28T04:03:10.943Z,11.50
2019-04-28T04:05:40.634Z,11.40
2019-04-28T04:10:40.824Z,11.30
2019-04-28T04:13:13.717Z,11.30
2019-04-28T04:15:43.788Z,11.30
2019-04-28T04:20:42.218Z,11.20
2019-04-28T04:23:11.459Z,11.20
2019-04-28T04:25:41.646Z,11.20
2019-04-28T04:28:10.811Z,11.20
2019-04-28T04:30:40.908Z,11.20
2019-04-28T04:33:11.085Z,11.20
2019-04-28T04:35:41.212Z,11.20
2019-04-28T04:38:10.508Z,11.20
2019-04-28T04:40:41.338Z,11.20
2019-04-28T04:43:11.197Z,11.10
2019-04-28T04:45:40.642Z,11.20
2019-04-28T04:48:11.668Z,11.20
2019-04-28T04:50:41.156Z,11.20
2019-04-28T04:53:11.038Z,11.10
2019-04-28T04:55:40.798Z,11.10
2019-04-28T04:58:10.778Z,11.10
2019-04-28T05:00:43.322Z,11.10
2019-04-28T05:03:12.994Z,11.10
2019-04-28T05:05:43.009Z,11.10
2019-04-28T05:08:15.375Z,11.10
2019-04-28T05:10:41.671Z,11.10
2019-04-28T05:13:10.371Z,11.10
2019-04-28T05:15:40.070Z,11.10
2019-04-28T05:18:10.174Z,11.10
2019-04-28T05:20:40.416Z,11.10
2019-04-28T05:23:10.917Z,11.20
2019-04-28T05:25:41.052Z,11.20
2019-04-28T05:28:10.447Z,11.20
2019-04-28T05:30:42.721Z,11.20
2019-04-28T05:33:11.014Z,11.20
2019-04-28T05:35:39.739Z,11.20
2019-04-28T05:38:09.910Z,11.20
2019-04-28T05:40:39.890Z,11.20
2019-04-28T05:43:10.582Z,11.10
2019-04-28T05:45:39.753Z,11.10
2019-04-28T05:48:09.529Z,11.00
2019-04-28T05:50:40.315Z,11.00
2019-04-28T05:53:10.822Z,10.90
2019-04-28T05:55:41.844Z,10.90
2019-04-28T05:58:27.638Z,10.90
2019-04-28T06:01:10.262Z,10.80
2019-04-28T06:03:40.520Z,10.80
2019-04-28T06:06:10.235Z,10.70
2019-04-28T06:08:56.657Z,10.70
2019-04-28T06:11:35.585Z,10.70
2019-04-28T06:14:04.232Z,10.60
2019-04-28T06:16:32.803Z,10.50
2019-04-28T06:19:01.312Z,10.40
2019-04-28T06:21:29.958Z,10.40
2019-04-28T06:23:58.914Z,10.40
2019-04-28T06:26:27.458Z,10.40
2019-04-28T06:28:55.908Z,10.50
2019-04-28T06:31:24.411Z,10.50
2019-04-28T06:33:53.130Z,10.50
2019-04-28T06:36:21.674Z,10.50
2019-04-28T06:38:50.175Z,10.50
2019-04-28T06:41:18.665Z,10.50
2019-04-28T06:43:47.117Z,10.40
2019-04-28T06:46:15.652Z,10.50
2019-04-28T06:48:44.205Z,10.50
2019-04-28T06:51:12.989Z,10.50
2019-04-28T06:53:41.699Z,10.50
2019-04-28T06:56:10.428Z,10.50
2019-04-28T06:58:39.018Z,10.50
2019-04-28T07:01:07.615Z,10.60
2019-04-28T07:03:36.157Z,10.60
2019-04-28T07:06:04.976Z,10.60
2019-04-28T07:08:33.491Z,10.60
2019-04-28T07:11:02.063Z,10.60
2019-04-28T07:13:31.167Z,10.60
2019-04-28T07:15:59.837Z,10.70
2019-04-28T07:18:28.370Z,10.60
2019-04-28T07:20:58.576Z,10.60
2019-04-28T07:23:27.638Z,10.60
2019-04-28T07:25:56.253Z,10.70
2019-04-28T07:28:24.715Z,10.70
2019-04-28T07:30:53.455Z,10.70
2019-04-28T07:33:22.105Z,10.70
2019-04-28T07:35:50.584Z,10.70
2019-04-28T07:38:19.374Z,10.60
2019-04-28T07:40:48.024Z,10.60
2019-04-28T07:43:16.759Z,10.70
2019-04-28T07:45:45.208Z,10.70
2019-04-28T07:48:13.922Z,10.60
2019-04-28T07:50:42.513Z,10.60
2019-04-28T07:53:15.478Z,10.60
2019-04-28T07:55:43.947Z,10.60
2019-04-28T07:58:12.479Z,10.60
2019-04-28T08:00:41.480Z,10.70
2019-04-28T08:03:10.148Z,10.70
2019-04-28T08:05:38.697Z,10.70
2019-04-28T08:08:07.180Z,10.70
2019-04-28T08:10:35.700Z,10.70
2019-04-28T08:13:04.577Z,10.70
2019-04-28T08:15:33.165Z,10.80
2019-04-28T08:18:01.632Z,10.80
2019-04-28T08:20:30.103Z,10.80
2019-04-28T08:22:58.552Z,10.80
2019-04-28T08:25:27.100Z,10.80
2019-04-28T08:27:55.539Z,10.80
2019-04-28T08:30:24.020Z,10.80
2019-04-28T08:32:59.165Z,10.90
2019-04-28T08:35:27.842Z,10.90
2019-04-28T08:37:56.430Z,11.00
2019-04-28T08:40:24.985Z,11.00
2019-04-28T08:42:53.544Z,11.10
2019-04-28T08:45:22.155Z,11.20
2019-04-28T08:47:50.694Z,11.30
2019-04-28T08:50:19.140Z,11.30
2019-04-28T08:52:47.619Z,11.40
2019-04-28T08:55:16.261Z,11.50
2019-04-28T08:57:44.823Z,11.60
2019-04-28T09:00:14.850Z,11.60
2019-04-28T09:02:43.466Z,11.80
2019-04-28T09:05:12.034Z,11.80
2019-04-28T09:07:40.559Z,12.00
2019-04-28T09:10:09.266Z,12.10
2019-04-28T09:12:38.335Z,12.10
2019-04-28T09:15:07.881Z,12.20
2019-04-28T09:17:36.412Z,12.30
2019-04-28T09:20:08.478Z,12.30
2019-04-28T09:22:37.099Z,12.40
2019-04-28T09:25:06.928Z,12.40
2019-04-28T09:27:35.537Z,12.50
2019-04-28T09:30:06.926Z,12.60
2019-04-28T09:32:35.721Z,12.70
2019-04-28T09:35:06.024Z,12.70
2019-04-28T09:37:34.956Z,12.90
2019-04-28T09:40:10.768Z,12.80
2019-04-28T09:42:43.667Z,12.90
2019-04-28T09:45:22.709Z,13.00
2019-04-28T09:47:51.324Z,13.00
2019-04-28T09:50:20.177Z,13.00
2019-04-28T09:52:48.990Z,13.10
2019-04-28T09:55:17.455Z,13.20
2019-04-28T09:57:46.071Z,13.30
2019-04-28T10:00:15.031Z,13.40
2019-04-28T10:02:43.547Z,13.50
2019-04-28T10:05:12.356Z,13.60
2019-04-28T10:07:40.931Z,13.70
2019-04-28T10:10:10.284Z,13.70
2019-04-28T10:12:39.245Z,13.80
2019-04-28T10:15:09.244Z,13.80
2019-04-28T10:17:39.285Z,13.80
2019-04-28T10:20:09.417Z,13.80
2019-04-28T10:22:38.037Z,13.80
2019-04-28T10:25:08.603Z,13.80
2019-04-28T10:27:37.116Z,13.80
2019-04-28T10:30:09.254Z,13.80
2019-04-28T10:32:38.041Z,13.80
2019-04-28T10:35:08.952Z,13.70
2019-04-28T10:37:37.932Z,13.80
2019-04-28T10:42:58.747Z,13.80
2019-04-28T10:45:32.228Z,13.80
2019-04-28T10:48:01.075Z,13.80
2019-04-28T10:50:29.772Z,13.90
2019-04-28T10:52:58.837Z,13.90
2019-04-28T10:55:31.417Z,14.00
2019-04-28T10:58:00.491Z,14.00
2019-04-28T11:00:30.791Z,14.00
2019-04-28T11:02:59.579Z,14.10
2019-04-28T11:05:30.236Z,14.10
2019-04-28T11:07:59.137Z,14.10
2019-04-28T11:10:30.769Z,14.10
2019-04-28T11:12:59.331Z,14.10
2019-04-28T11:15:32.734Z,14.20
2019-04-28T11:18:01.432Z,14.20
2019-04-28T11:20:29.893Z,14.30
2019-04-28T11:22:58.437Z,14.40
2019-04-28T11:25:26.923Z,14.40
2019-04-28T11:27:55.617Z,14.50
2019-04-28T11:30:24.895Z,14.50
2019-04-28T11:33:07.321Z,14.60
2019-04-28T11:35:37.875Z,14.70
2019-04-28T11:38:06.533Z,14.80
2019-04-28T11:40:35.145Z,14.90
2019-04-28T11:43:03.800Z,15.00
2019-04-28T11:45:32.811Z,15.10
2019-04-28T11:48:01.493Z,15.10
2019-04-28T11:50:30.153Z,15.10
2019-04-28T11:52:58.751Z,15.20
2019-04-28T11:55:27.316Z,15.30
2019-04-28T11:57:55.977Z,15.30
2019-04-28T12:00:34.962Z,15.40
2019-04-28T12:03:04.041Z,15.50
2019-04-28T12:05:40.327Z,15.60
2019-04-28T12:08:09.307Z,15.80
2019-04-28T12:10:48.414Z,15.90
2019-04-28T12:13:24.282Z,16.00
2019-04-28T12:16:13.131Z,16.20
2019-04-28T12:18:55.542Z,16.30
2019-04-28T12:21:43.404Z,16.40
2019-04-28T12:24:11.957Z,16.40
2019-04-28T12:26:40.544Z,16.60
2019-04-28T12:29:09.011Z,16.80
2019-04-28T12:34:06.189Z,16.90
2019-04-28T12:36:34.749Z,17.00
2019-04-28T12:39:04.729Z,17.00
2019-04-28T12:41:33.256Z,17.00
2019-04-28T12:44:02.292Z,17.00
2019-04-28T12:46:30.776Z,17.00
2019-04-28T12:49:00.924Z,17.00
2019-04-28T12:51:29.597Z,17.00
2019-04-28T12:53:59.781Z,17.00
2019-04-28T12:56:28.262Z,17.00
2019-04-28T12:58:58.370Z,17.10
2019-04-28T13:01:28.742Z,17.20
2019-04-28T13:04:07.846Z,17.30
2019-04-28T13:06:36.349Z,17.30
2019-04-28T13:09:06.947Z,17.40
2019-04-28T13:11:35.772Z,17.50
2019-04-28T13:14:04.978Z,17.50
2019-04-28T13:16:33.621Z,17.50
2019-04-28T13:19:02.143Z,17.50
2019-04-28T13:21:31.026Z,17.60
2019-04-28T13:23:59.597Z,17.60
2019-04-28T13:26:28.307Z,17.60
2019-04-28T13:28:56.938Z,17.60
2019-04-28T13:31:25.511Z,17.70
2019-04-28T13:33:56.629Z,17.70
2019-04-28T13:36:24.534Z,17.70
2019-04-28T13:38:53.664Z,17.70
2019-04-28T13:41:22.501Z,17.70
2019-04-28T13:43:50.969Z,17.60
2019-04-28T13:46:19.868Z,17.60
2019-04-28T13:48:48.414Z,17.60
2019-04-28T13:51:16.994Z,17.60
2019-04-28T13:53:45.471Z,17.50
2019-04-28T13:56:14.118Z,17.50
2019-04-28T13:58:43.353Z,17.50
2019-04-28T14:01:31.631Z,17.60
2019-04-28T14:04:01.724Z,17.60
2019-04-28T14:06:31.850Z,17.60
2019-04-28T14:09:00.376Z,17.70
2019-04-28T14:11:28.866Z,17.70
2019-04-28T14:13:57.543Z,17.80
2019-04-28T14:16:26.110Z,17.80
2019-04-28T14:18:54.690Z,17.90
2019-04-28T14:21:23.185Z,18.00
2019-04-28T14:23:51.760Z,18.00
2019-04-28T14:26:20.262Z,18.10
2019-04-28T14:28:48.836Z,18.20
2019-04-28T14:31:17.837Z,18.30
2019-04-28T14:33:46.419Z,18.50
2019-04-28T14:36:15.141Z,18.60
2019-04-28T14:38:43.955Z,18.60
2019-04-28T14:41:12.458Z,18.70
2019-04-28T14:43:41.412Z,18.70
2019-04-28T14:46:09.991Z,18.70
2019-04-28T14:48:38.744Z,18.70
2019-04-28T14:51:07.384Z,18.70
2019-04-28T14:53:35.854Z,18.70
2019-04-28T14:56:07.193Z,18.70
2019-04-28T14:58:34.614Z,18.60
2019-04-28T15:01:07.463Z,18.60
2019-04-28T15:03:40.528Z,18.50
2019-04-28T15:06:13.463Z,18.50
2019-04-28T15:08:46.300Z,18.40
2019-04-28T15:11:16.505Z,18.30
2019-04-28T15:13:45.246Z,18.30
2019-04-28T15:16:14.018Z,18.30
2019-04-28T15:18:42.519Z,18.60
2019-04-28T15:21:11.011Z,18.80
2019-04-28T15:23:39.655Z,19.40
2019-04-28T15:26:08.275Z,20.00
2019-04-28T15:28:36.935Z,21.00
2019-04-28T15:31:05.652Z,22.10
2019-04-28T15:33:34.253Z,23.50
2019-04-28T15:36:02.743Z,24.50
2019-04-28T15:38:31.379Z,25.70
2019-04-28T15:40:59.844Z,27.00
2019-04-28T15:43:28.342Z,28.20
2019-04-28T15:45:57.242Z,29.40
2019-04-28T15:48:25.738Z,30.50
2019-04-28T15:50:54.291Z,31.10
2019-04-28T15:53:23.267Z,31.80
2019-04-28T15:55:53.369Z,32.50
2019-04-28T15:58:32.315Z,33.10
2019-04-28T16:01:01.304Z,33.70
2019-04-28T16:03:29.942Z,34.40
2019-04-28T16:06:00.000Z,35.00
2019-04-28T16:08:29.169Z,35.60
2019-04-28T16:10:57.722Z,35.70
2019-04-28T16:13:26.228Z,35.60
2019-04-28T16:15:54.939Z,35.20
2019-04-28T16:18:23.705Z,34.60
2019-04-28T16:20:52.194Z,33.80
2019-04-28T16:23:20.885Z,32.70
2019-04-28T16:25:49.975Z,32.10
2019-04-28T16:28:18.556Z,30.70
2019-04-28T16:30:47.427Z,30.10
2019-04-28T16:33:16.207Z,28.80
2019-04-28T16:35:44.908Z,28.30
2019-04-28T16:38:13.775Z,27.00
2019-04-28T16:40:45.742Z,25.70
2019-04-28T16:43:15.235Z,25.40
2019-04-28T16:45:43.916Z,25.00
2019-04-28T16:48:12.473Z,24.00
2019-04-28T16:50:41.032Z,23.60
2019-04-28T16:53:09.858Z,22.90
2019-04-28T16:55:47.228Z,22.60
2019-04-28T16:58:32.319Z,22.00
2019-04-28T17:01:02.597Z,21.80
2019-04-28T17:03:32.906Z,21.20
2019-04-28T17:06:01.399Z,21.00
2019-04-28T17:08:31.155Z,20.60
2019-04-28T17:10:59.897Z,20.50
2019-04-28T17:13:29.717Z,20.20
2019-04-28T17:15:58.460Z,20.10
2019-04-28T17:18:27.300Z,19.80
2019-04-28T17:20:55.830Z,19.70
2019-04-28T17:23:24.361Z,19.50
2019-04-28T17:25:53.164Z,19.40
2019-04-28T17:28:21.724Z,19.20
2019-04-28T17:30:50.206Z,19.10
2019-04-28T17:33:18.757Z,19.00
2019-04-28T17:35:50.736Z,18.80
2019-04-28T17:38:19.394Z,18.70
2019-04-28T17:40:47.876Z,18.70
2019-04-28T17:43:16.493Z,18.60
2019-04-28T17:45:45.016Z,18.40
2019-04-28T17:48:30.128Z,18.30
2019-04-28T17:50:58.648Z,18.30
2019-04-28T17:53:27.356Z,18.10
2019-04-28T17:55:55.852Z,18.00
2019-04-28T17:58:24.855Z,17.90
2019-04-28T18:00:55.013Z,17.90
2019-04-28T18:03:31.195Z,17.80
2019-04-28T18:06:17.488Z,17.70
2019-04-28T18:08:40.369Z,17.70
2019-04-28T18:11:08.912Z,17.60
2019-04-28T18:13:37.670Z,17.50
2019-04-28T18:16:08.088Z,17.50
2019-04-28T18:18:40.964Z,17.40
2019-04-28T18:21:09.528Z,17.30
2019-04-28T18:23:38.284Z,17.20
2019-04-28T18:26:06.916Z,17.20
2019-04-28T18:28:35.394Z,17.10
2019-04-28T18:31:15.510Z,17.10
2019-04-28T18:34:04.366Z,17.10
2019-04-28T18:36:51.773Z,17.00
2019-04-28T18:39:38.635Z,17.00
2019-04-28T18:42:08.809Z,16.80
2019-04-28T18:44:38.266Z,16.80
2019-04-28T18:47:06.774Z,16.80
2019-04-28T18:49:35.495Z,16.70
2019-04-28T18:52:04.278Z,16.70
2019-04-28T18:54:33.000Z,16.70
2019-04-28T18:57:01.446Z,16.60
2019-04-28T18:59:30.202Z,16.60
2019-04-28T19:02:00.337Z,16.50
2019-04-28T19:04:29.306Z,16.50
2019-04-28T19:07:04.834Z,16.50
2019-04-28T19:09:38.543Z,16.50
2019-04-28T19:12:20.478Z,16.40
2019-04-28T19:14:53.770Z,16.40
2019-04-28T19:17:35.646Z,16.20
2019-04-28T19:20:05.364Z,16.20
2019-04-28T19:22:35.498Z,16.10
2019-04-28T19:25:05.609Z,16.00
2019-04-28T19:27:34.663Z,15.90
2019-04-28T19:30:04.188Z,15.90
2019-04-28T19:32:32.761Z,15.70
2019-04-28T19:35:01.264Z,15.70
2019-04-28T19:37:30.049Z,15.60
2019-04-28T19:39:58.662Z,15.60
2019-04-28T19:42:27.793Z,15.40
2019-04-28T19:44:56.271Z,15.30
2019-04-28T19:47:25.844Z,15.30
2019-04-28T19:49:54.378Z,15.20
2019-04-28T19:52:23.225Z,15.20
2019-04-28T19:55:09.504Z,15.20
2019-04-28T19:57:45.378Z,15.10
2019-04-28T20:00:19.148Z,15.10
2019-04-28T20:02:47.915Z,15.10
2019-04-28T20:05:16.402Z,15.10
2019-04-28T20:07:45.214Z,15.10
2019-04-28T20:10:14.068Z,15.10
2019-04-28T20:12:42.771Z,15.10
2019-04-28T20:15:11.735Z,15.10
2019-04-28T20:17:40.987Z,15.10
2019-04-28T20:20:13.959Z,15.10
2019-04-28T20:22:42.924Z,15.10
2019-04-28T20:25:12.685Z,15.10
2019-04-28T20:27:41.306Z,15.10
2019-04-28T20:30:10.360Z,15.10
2019-04-28T20:32:47.627Z,15.00
2019-04-28T20:35:24.226Z,15.10
2019-04-28T20:37:57.419Z,15.10
2019-04-28T20:40:40.076Z,15.10
2019-04-28T20:43:15.447Z,15.00
2019-04-28T20:45:44.231Z,15.00
2019-04-28T20:48:12.715Z,15.00
2019-04-28T20:50:43.818Z,15.00
2019-04-28T20:53:12.381Z,14.90
2019-04-28T20:55:41.030Z,14.90
2019-04-28T20:58:09.724Z,14.90
2019-04-28T21:00:38.455Z,14.90
2019-04-28T21:03:07.091Z,14.90
2019-04-28T21:05:35.585Z,14.80
2019-04-28T21:08:04.193Z,14.80
2019-04-28T21:10:38.319Z,14.70
2019-04-28T21:13:04.705Z,14.60
2019-04-28T21:15:33.256Z,14.60
2019-04-28T21:18:01.833Z,14.50
2019-04-28T21:20:31.702Z,14.50
2019-04-28T21:23:00.248Z,14.40
2019-04-28T21:25:28.844Z,14.40
2019-04-28T21:27:57.528Z,14.30
2019-04-28T21:30:26.027Z,14.30
2019-04-28T21:32:54.625Z,14.30
2019-04-28T21:35:23.090Z,14.30
2019-04-28T21:37:51.776Z,14.30
2019-04-28T21:40:20.768Z,14.30
2019-04-28T21:43:03.059Z,14.30
2019-04-28T21:45:50.580Z,14.30
2019-04-28T21:48:20.689Z,14.20
2019-04-28T21:50:49.619Z,14.20
2019-04-28T21:53:18.501Z,14.20
2019-04-28T21:55:47.197Z,14.10
2019-04-28T21:58:15.767Z,13.90
2019-04-28T22:00:51.896Z,13.90
2019-04-28T22:03:20.499Z,13.80
2019-04-28T22:05:49.379Z,13.80
2019-04-28T22:08:18.223Z,13.60
2019-04-28T22:10:47.307Z,13.60
2019-04-28T22:13:15.999Z,13.50
2019-04-28T22:15:45.393Z,13.40
2019-04-28T22:18:13.995Z,13.30
2019-04-28T22:20:42.511Z,13.40
2019-04-28T22:23:19.043Z,13.30
2019-04-28T22:25:48.112Z,13.30
2019-04-28T22:28:16.859Z,13.20
2019-04-28T22:30:45.445Z,13.30
2019-04-28T22:33:14.025Z,13.20
2019-04-28T22:35:42.551Z,13.20
2019-04-28T22:38:11.057Z,13.20
2019-04-28T22:40:39.740Z,13.20
2019-04-28T22:43:08.455Z,13.20
2019-04-28T22:45:37.063Z,13.10
2019-04-28T22:48:06.930Z,13.10
2019-04-28T22:50:40.627Z,13.10
2019-04-28T22:53:09.102Z,13.10
2019-04-28T22:55:39.309Z,13.10
2019-04-28T22:58:10.042Z,13.10
2019-04-28T23:00:43.173Z,13.10
2019-04-28T23:03:16.543Z,13.10
2019-04-28T23:05:45.125Z,13.10
2019-04-28T23:08:14.025Z,13.10
2019-04-28T23:10:42.503Z,13.10
2019-04-28T23:13:11.083Z,13.10
2019-04-28T23:15:39.703Z,13.10
2019-04-28T23:18:08.235Z,13.10
2019-04-28T23:20:39.442Z,13.10
2019-04-28T23:23:09.565Z,13.10
2019-04-28T23:25:38.741Z,13.10
2019-04-28T23:28:07.568Z,13.00
2019-04-28T23:30:45.402Z,13.00
2019-04-28T23:33:33.675Z,12.90
2019-04-28T23:36:02.331Z,12.90
2019-04-28T23:38:30.787Z,12.80
2019-04-28T23:41:00.987Z,12.80
2019-04-28T23:43:29.433Z,12.80
2019-04-28T23:45:57.980Z,12.80
2019-04-28T23:48:26.536Z,12.70
2019-04-28T23:51:02.399Z,12.70
2019-04-28T23:53:32.515Z,12.70
2019-04-28T23:56:01.075Z,12.60
2019-04-28T23:58:29.638Z,12.60
